Wilkes Barre, PA (18711)

12:33 AM EST on February 07, 2016 (GMT -0500)
Miners Mills | | Change Station
CLOSE
Current Station
Personal Weather Station
Location: Wilkes-Barre, PA
Elevation: 607 ft
Nearby Weather Stations

Elev 607 ft 41.27 °N, 75.85 °W | Updated 1 second ago

Overcast
Overcast
27.1 °F
Feels Like 27 °F
N
0.0
Wind Variable Wind from NNE
Gusts 0.0 mph

Today
High -- | Low -- °F
--% Chance of Precip.
Yesterday
High -- | Low -- °F
Precip. -- in
Pressure 30.22 in
Visibility 10.0 miles
Clouds Clear
Windchill 27 °F
Dew Point 18 °F
Humidity 69%
Rainfall 0.00 in
Snow Depth Not available.
7:08 AM 5:27 PM
Waning Crescent, 3% visible
METAR KAVP 070454Z 00000KT 10SM CLR M02/M08 A3019 RMK AO2 SLP232 T10171078 400561067
Pressure 30.22 in
Visibility 10.0 miles
Clouds Clear
Windchill 27 °F
Dew Point 18 °F
Humidity 69%
Rainfall 0.00 in
Snow Depth Not available.
7:08 AM 5:27 PM
Waning Crescent, 3% visible
METAR KAVP 070454Z 00000KT 10SM CLR M02/M08 A3019 RMK AO2 SLP232 T10171078 400561067

10-Day Weather Forecast

Almanac

Astronomy

Feb. 07, 2016 Rise Set
Actual Time
Civil Twilight
Nautical Twilight
Astronomical Twilight
Moon
Length of Visible Light
Length of Day
Tomorrow will be .
, % of the Moon is Illuminated

Today's Extremes

State Highs State Lows

Community

WunderPhotos

Upload Photos

1,891,163 photos uploaded!

WunderBlog® & News

Nearby

Air Quality

  Air Quality AQ Index Pollutant
Not available.

Snow Depth

Station Depth Elevation

Earthquake Activity

City Distance Mag. Time & Date
Minimum magnitude displayed is 2.5.

Coastal Water Temperatures

Place Temperature

Stations

Nearby Weather Stations

Station Location Temp. Windchill Dew Point Humidity Wind Precip. Elev Updated Type
                   

Watches & Warnings

There are currently no watches in effect.